Sunset Beach, North Carolina
Current Conditions -  °F | °C
As of 5:53 AM on Friday 24 Oct 2014 (Local Time) from KCRE Reporting Station
Clear Clear  
Wind Chill: 50°   Ceiling: Unl
Heat Index: 50°   Visibility: 10mi
Dew Point: 44°   Wind: 7mph
Humidity: 80%   Direction: 350°N
Pressure: 30"   Gusts: NA
Location:  33.87°N, 78.51°W
Report Text: KCRE 240953Z AUTO 35006KT 10SM CLR 10/07 A3000 RMK AO1 SLP160 T01000067
Loading
Personal Weather Stations






























Interactive Weather Map
Tropical Storm Tracking
New forecast layout! Learn more

10-Day Weather Forecast

Advertisements
Track Severe Weather on mobile